Aérodrome :
LOGIN :

S'inscrire | Disclaimer

   EN    FR    IT 

 










Légende :    VFR   VFR Marginal   IFR   IFR Intensif   IFR Très Intensif
Visi : 
Plafond : 
>= 8 km
>= 3000ft
5 à 8 km
1000 à 3000 ft
1500m à 5 km
500 à 1000 ft
800 à 1500m
200 à 500 ft
< 800m
< 200 ft
Symboles :   Orages  Brouillard  Fortes neiges  Fortes précipitations  Vent > 20 kt
SIGMETs :   Divers  Orages  Givrage  Turbulence  Onde Orograph.  Cendres Volcan.







- Altitude de l'aérodrome : 1521 ft
- Code IATA : NCY
- Voir les cartes d'approche


LFLP - Annecy

DERNIER METAR :
  • 221800Z AUTO VRB01KT 9999 FEW003 BKN034 OVC042 08/07 Q1018 TEMPO 4000 RA BKN009

METARs EXPIRÉS :
  • 221730Z AUTO 07005KT 040V100 8000 -RA FEW008 SCT014 BKN021 08/07 Q1018 TEMPO 4000 RA BKN009 BECMG 20010KT
  • 221700Z AUTO 00000KT 4500 RA BR FEW024 BKN029 BKN039 08/07 Q1018 TEMPO BKN009 BECMG 20010KT
  • 221630Z AUTO 03005KT 010V070 9999 RA SCT031/// BKN040/// OVC050/// ///TCU 08/07 Q1017 TEMPO 4000 RA BKN009 BECMG 20010KT
  • 221600Z AUTO 00000KT 9999 4400 RA SCT035 BKN042 OVC058 09/07 Q1017 TEMPO 4000 RA BKN009 BECMG 20010KT
  • 221530Z AUTO 08004KT 360V140 9999 -RA FEW022 SCT031 BKN042 09/07 Q1017 TEMPO 4000 RA BKN009 BECMG 20010KT

TAF TAF LFLP
Valide du 22 à 15h jusqu'au 23 à 15h UTC


221400Z 2215/2315 10012KT 9999 OVC030
BECMG 2215/2217 20010KT
TEMPO 2215/2224 4000 RA BKN009
BECMG 2221/2223 VRB02KT
PROB30
TEMPO 2300/2306 4000 BR
BECMG 2305/2307 CAVOK
Pas de NOTAMs connus pour ce terrain.
6 SIGMETs publiés pour la FIR Marseille (LFMM) :
 
Onde orographique forte
LFMM SIGMET 18 VALID 221800/222100 LFPW
LFMM MARSEILLE FIR/UIR SEV MTW FCST WI N4545 E00700 - N4400 E00700 - N4330 E00645 - N4415 E00530 - N4545 E00700 SFC/FL220 STNR NC=
Onde orographique forte
LFMM SIGMET 17 VALID 221800/222100 LFPW
LFMM MARSEILLE FIR/UIR SEV MTW FCST WI N4215 E00230 - N4330 E00245 - N4500 E00415 - N4430 E00515 - N4215 E00230 SFC/FL280 STNR NC=
Turbulence forte
LFMM SIGMET 16 VALID 221800/222100 LFPW
LFMM MARSEILLE FIR/UIR SEV TURB FCST WI N4500 E00700 - N4400 E00700 - N4315 E00945 - N4115 E00945 - N4115 E00800 - N4015 E00800 - N4315 E00515 - N4500 E00700 SFC/FL080 STNR NC=
Turbulence forte
LFMM SIGMET 15 VALID 221800/222100 LFPW
LFMM MARSEILLE FIR/UIR SEV TURB FCST WI N4200 E00430 - N4215 E00230 - N4545 E00300 - N4545 E00400 - N4215 E00530 - N4200 E00430 SFC/FL080 STNR NC=
Turbulence forte
LFMM SIGMET 13 VALID 221500/221800 LFPW
LFMM MARSEILLE FIR/UIR SEV TURB FCST WI N4615 E00700 - N4400 E00700 - N4315 E00630 - N4330 E00530 - N4615 E00700 SFC/FL120 STNR NC=
Turbulence forte
LFMM SIGMET 12 VALID 221500/221800 LFPW
LFMM MARSEILLE FIR/UIR SEV TURB FCST WI N4100 E00430 - N4200 E00430 - N4215 E00230 - N4630 E00300 - N4545 E00430 - N4100 E00745 - N4015 E00630 - N4100 E00430 SFC/FL080 STNR NC=



MET'MAP, la Météo Aéronautique d'un coup d'oeil ! - Copyright ORBIFLY Décembre 2007 - Disclaimer

ORBIFLY MET'MAP TEAM :

Programmation & Développement : Alexandra Zaïnal
Conception & Développement : Baudouin d'Aumeries
Co-Programmation & Développement : Marc-Olivier Méhu
Soutien technique & logistique : Manuel Goepfert

Contact : metmap@orbifly.com




SOURCES & CREDITS :

   NOAA